createdAt,value
2019-05-01T00:01:40.267Z,7.72
2019-05-01T00:04:29.070Z,7.73
2019-05-01T00:07:01.890Z,7.71
2019-05-01T00:09:32.240Z,7.68
2019-05-01T00:12:02.670Z,7.60
2019-05-01T00:14:34.691Z,7.58
2019-05-01T00:17:06.815Z,7.51
2019-05-01T00:19:37.257Z,7.43
2019-05-01T00:22:07.856Z,7.37
2019-05-01T00:24:38.739Z,7.36
2019-05-01T00:27:09.051Z,7.31
2019-05-01T00:29:39.421Z,7.26
2019-05-01T00:32:09.795Z,7.25
2019-05-01T00:34:40.374Z,7.27
2019-05-01T00:37:10.803Z,7.25
2019-05-01T00:39:43.561Z,7.20
2019-05-01T00:42:13.802Z,7.14
2019-05-01T00:44:46.000Z,7.11
2019-05-01T00:47:16.411Z,7.04
2019-05-01T00:49:47.829Z,7.11
2019-05-01T00:52:18.120Z,7.10
2019-05-01T00:54:50.475Z,7.10
2019-05-01T00:57:33.328Z,7.20
2019-05-01T01:00:42.794Z,7.22
2019-05-01T01:03:08.272Z,7.27
2019-05-01T01:05:38.740Z,7.31
2019-05-01T01:08:09.435Z,7.33
2019-05-01T01:10:39.743Z,7.30
2019-05-01T01:13:11.264Z,7.23
2019-05-01T01:15:41.598Z,7.17
2019-05-01T01:18:12.759Z,7.19
2019-05-01T01:20:43.142Z,7.07
2019-05-01T01:23:13.860Z,7.03
2019-05-01T01:25:44.193Z,7.05
2019-05-01T01:28:15.661Z,7.03
2019-05-01T01:30:56.244Z,7.03
2019-05-01T01:33:18.211Z,6.98
2019-05-01T01:35:48.975Z,6.97
2019-05-01T01:38:19.364Z,6.91
2019-05-01T01:40:50.337Z,6.87
2019-05-01T01:43:38.006Z,6.85
2019-05-01T01:46:09.574Z,6.86
2019-05-01T01:48:40.488Z,6.88
2019-05-01T01:51:10.939Z,6.89
2019-05-01T01:53:43.557Z,6.88
2019-05-01T01:56:13.874Z,6.84
2019-05-01T01:58:44.612Z,6.85
2019-05-01T02:01:38.268Z,6.81
2019-05-01T02:04:26.369Z,6.78
2019-05-01T02:06:58.075Z,6.77
2019-05-01T02:09:28.875Z,6.74
2019-05-01T02:12:01.683Z,6.73
2019-05-01T02:14:32.983Z,6.74
2019-05-01T02:17:04.750Z,6.75
2019-05-01T02:19:35.137Z,6.66
2019-05-01T02:22:05.614Z,6.63
2019-05-01T02:24:35.876Z,6.62
2019-05-01T02:27:10.872Z,6.55
2019-05-01T02:29:46.532Z,6.52
2019-05-01T02:32:18.508Z,6.51
2019-05-01T02:34:49.808Z,6.48
2019-05-01T02:37:22.296Z,6.43
2019-05-01T02:39:53.005Z,6.44
2019-05-01T02:42:28.838Z,6.43
2019-05-01T02:45:02.774Z,6.43
2019-05-01T02:47:37.172Z,6.48
2019-05-01T02:50:11.449Z,6.41
2019-05-01T02:52:44.054Z,6.32
2019-05-01T02:55:29.716Z,6.32
2019-05-01T02:58:01.064Z,6.32
2019-05-01T03:00:31.984Z,6.26
2019-05-01T03:03:02.765Z,6.24
2019-05-01T03:05:33.078Z,6.25
2019-05-01T03:08:03.968Z,6.23
2019-05-01T03:10:34.476Z,6.19
2019-05-01T03:13:05.206Z,6.11
2019-05-01T03:15:37.589Z,6.06
2019-05-01T03:18:18.814Z,6.14
2019-05-01T03:21:10.931Z,6.13
2019-05-01T03:23:58.139Z,6.12
2019-05-01T03:26:28.734Z,6.15
2019-05-01T03:28:59.052Z,6.16
2019-05-01T03:31:29.610Z,6.30
2019-05-01T03:33:59.989Z,6.42
2019-05-01T03:36:30.767Z,6.35
2019-05-01T03:39:01.701Z,6.25
2019-05-01T03:41:34.136Z,6.29
2019-05-01T03:44:05.205Z,6.40
2019-05-01T03:46:36.346Z,6.38
2019-05-01T03:49:06.970Z,6.43
2019-05-01T03:51:38.605Z,6.56
2019-05-01T03:54:09.212Z,6.69
2019-05-01T03:56:39.602Z,6.83
2019-05-01T03:59:10.346Z,6.94
2019-05-01T04:02:00.258Z,7.01
2019-05-01T04:04:32.463Z,7.04
2019-05-01T04:07:02.860Z,7.07
2019-05-01T04:09:34.758Z,7.09
2019-05-01T04:12:05.502Z,7.09
2019-05-01T04:14:39.104Z,7.09
2019-05-01T04:17:18.821Z,7.10
2019-05-01T04:19:50.845Z,7.13
2019-05-01T04:22:21.442Z,7.09
2019-05-01T04:24:52.117Z,7.06
2019-05-01T04:27:27.781Z,7.02
2019-05-01T04:30:30.300Z,6.99
2019-05-01T04:33:03.116Z,6.99
2019-05-01T04:35:54.255Z,6.96
2019-05-01T04:38:24.947Z,6.96
2019-05-01T04:40:55.536Z,7.00
2019-05-01T04:43:26.539Z,7.00
2019-05-01T04:45:57.369Z,6.99
2019-05-01T04:48:27.904Z,7.01
2019-05-01T04:50:58.762Z,7.00
2019-05-01T04:53:29.623Z,7.02
2019-05-01T04:55:59.927Z,7.05
2019-05-01T04:58:31.157Z,7.08
2019-05-01T05:01:01.854Z,7.06
2019-05-01T05:03:32.579Z,7.07
2019-05-01T05:06:03.055Z,7.07
2019-05-01T05:08:34.392Z,7.08
2019-05-01T05:11:10.459Z,7.17
2019-05-01T05:13:48.226Z,7.19
2019-05-01T05:16:23.848Z,7.17
2019-05-01T05:18:54.722Z,7.21
2019-05-01T05:21:25.331Z,7.25
2019-05-01T05:23:56.264Z,7.32
2019-05-01T05:26:27.074Z,7.36
2019-05-01T05:28:59.583Z,7.37
2019-05-01T05:31:32.829Z,7.48
2019-05-01T05:34:06.339Z,7.55
2019-05-01T05:36:38.187Z,7.62
2019-05-01T05:39:18.122Z,7.66
2019-05-01T05:41:50.761Z,7.66
2019-05-01T05:44:21.055Z,7.77
2019-05-01T05:46:51.736Z,7.82
2019-05-01T05:49:22.821Z,7.82
2019-05-01T05:52:05.550Z,7.87
2019-05-01T05:55:01.567Z,7.90
2019-05-01T05:57:54.483Z,7.91
2019-05-01T06:00:48.018Z,8.01
2019-05-01T06:03:58.275Z,8.04
2019-05-01T06:06:35.510Z,8.05
2019-05-01T06:09:09.078Z,8.14
2019-05-01T06:12:12.627Z,8.14
2019-05-01T06:14:57.670Z,8.16
2019-05-01T06:17:52.882Z,8.20
2019-05-01T06:20:44.784Z,8.27
2019-05-01T06:23:34.386Z,8.35
2019-05-01T06:26:32.106Z,8.43
2019-05-01T06:29:03.371Z,8.44
2019-05-01T06:31:33.827Z,8.44
2019-05-01T06:34:04.705Z,8.41
2019-05-01T06:36:35.115Z,8.51
2019-05-01T06:39:11.724Z,8.65
2019-05-01T06:41:44.102Z,8.77
2019-05-01T06:44:24.295Z,8.92
2019-05-01T06:47:16.246Z,9.01
2019-05-01T06:50:12.948Z,9.02
2019-05-01T06:52:43.848Z,8.97
2019-05-01T06:55:15.218Z,8.80
2019-05-01T06:57:46.269Z,8.81
2019-05-01T07:00:18.013Z,8.90
2019-05-01T07:02:50.869Z,8.96
2019-05-01T07:05:22.445Z,8.92
2019-05-01T07:07:55.002Z,8.94
2019-05-01T07:10:31.678Z,8.97
2019-05-01T07:13:05.016Z,8.97
2019-05-01T07:15:34.921Z,8.98
2019-05-01T07:18:05.390Z,8.99
2019-05-01T07:20:53.568Z,9.08
2019-05-01T07:23:25.704Z,9.23
2019-05-01T07:25:55.992Z,9.40
2019-05-01T07:28:34.238Z,9.36
2019-05-01T07:31:13.840Z,9.35
2019-05-01T07:33:47.144Z,9.31
2019-05-01T07:36:22.354Z,9.37
2019-05-01T07:38:52.911Z,9.28
2019-05-01T07:41:23.279Z,9.33
2019-05-01T07:44:16.016Z,9.53
2019-05-01T07:46:54.178Z,9.64
2019-05-01T07:49:32.436Z,9.76
2019-05-01T07:52:03.141Z,9.75
2019-05-01T07:54:37.853Z,9.44
2019-05-01T07:57:06.504Z,9.50
2019-05-01T07:59:37.041Z,9.58
2019-05-01T08:02:11.461Z,9.72
2019-05-01T08:04:41.754Z,9.74
2019-05-01T08:07:12.490Z,9.57
2019-05-01T08:09:45.805Z,9.50
2019-05-01T08:12:18.982Z,9.54
2019-05-01T08:14:47.732Z,9.76
2019-05-01T08:17:21.321Z,9.76
2019-05-01T08:19:57.018Z,9.91
2019-05-01T08:22:32.169Z,10.06
2019-05-01T08:25:03.394Z,10.17
2019-05-01T08:27:58.126Z,10.20
2019-05-01T08:30:59.905Z,10.25
2019-05-01T08:33:44.785Z,10.28
2019-05-01T08:36:16.330Z,10.28
2019-05-01T08:38:46.726Z,10.40
2019-05-01T08:41:17.027Z,10.48
2019-05-01T08:43:48.921Z,10.52
2019-05-01T08:46:38.933Z,10.41
2019-05-01T08:49:20.105Z,10.41
2019-05-01T08:51:50.822Z,10.49
2019-05-01T08:54:22.428Z,10.51
2019-05-01T08:56:58.097Z,10.53
2019-05-01T08:59:25.794Z,10.57
2019-05-01T09:02:08.873Z,10.12
2019-05-01T09:04:30.481Z,10.12
2019-05-01T09:07:02.283Z,10.35
2019-05-01T09:09:33.480Z,10.49
2019-05-01T09:12:06.919Z,10.73
2019-05-01T09:14:36.884Z,10.70
2019-05-01T09:17:09.049Z,10.60
2019-05-01T09:19:39.727Z,10.80
2019-05-01T09:22:10.418Z,11.00
2019-05-01T09:24:42.807Z,11.29
2019-05-01T09:27:39.623Z,11.76
2019-05-01T09:30:21.828Z,11.76
2019-05-01T09:32:54.608Z,12.02
2019-05-01T09:35:26.379Z,11.74
2019-05-01T09:37:56.778Z,11.78
2019-05-01T09:40:28.157Z,11.88
2019-05-01T09:42:59.334Z,11.98
2019-05-01T09:45:30.817Z,12.04
2019-05-01T09:48:02.823Z,12.28
2019-05-01T09:50:37.721Z,12.41
2019-05-01T09:53:34.198Z,12.36
2019-05-01T09:56:07.768Z,12.43
2019-05-01T09:58:38.907Z,12.84
2019-05-01T10:01:09.310Z,13.06
2019-05-01T10:03:39.646Z,13.32
2019-05-01T10:06:12.766Z,13.35
2019-05-01T10:08:42.257Z,13.36
2019-05-01T10:11:12.845Z,13.43
2019-05-01T10:13:43.148Z,13.57
2019-05-01T10:16:13.555Z,13.77
2019-05-01T10:18:44.180Z,14.24
2019-05-01T10:21:14.902Z,14.44
2019-05-01T10:23:47.149Z,14.50
2019-05-01T10:26:24.096Z,14.55
2019-05-01T10:29:10.311Z,14.62
2019-05-01T10:32:09.109Z,14.74
2019-05-01T10:35:03.670Z,14.78
2019-05-01T10:37:35.489Z,14.50
2019-05-01T10:40:07.582Z,14.56
2019-05-01T10:42:40.922Z,14.83
2019-05-01T10:45:10.646Z,14.92
2019-05-01T10:47:41.259Z,14.87
2019-05-01T10:50:12.406Z,14.87
2019-05-01T10:52:42.860Z,15.03
2019-05-01T10:55:13.561Z,15.16
2019-05-01T10:57:43.968Z,15.14
2019-05-01T11:00:15.338Z,15.26
2019-05-01T11:02:47.231Z,15.28
2019-05-01T11:05:17.620Z,14.76
2019-05-01T11:07:49.677Z,14.58
2019-05-01T11:10:20.291Z,14.69
2019-05-01T11:12:52.614Z,14.51
2019-05-01T11:15:22.941Z,14.51
2019-05-01T11:17:54.132Z,14.68
2019-05-01T11:20:25.086Z,14.90
2019-05-01T11:22:55.526Z,14.99
2019-05-01T11:25:26.800Z,15.14
2019-05-01T11:27:57.720Z,15.25
2019-05-01T11:30:28.052Z,15.23
2019-05-01T11:33:13.503Z,15.55
2019-05-01T11:36:09.189Z,15.80
2019-05-01T11:38:45.935Z,15.86
2019-05-01T11:41:31.140Z,16.09
2019-05-01T11:44:02.012Z,16.01
2019-05-01T11:46:32.391Z,15.67
2019-05-01T11:49:03.754Z,15.56
2019-05-01T11:51:35.072Z,15.66
2019-05-01T11:54:05.496Z,15.74
2019-05-01T11:56:38.161Z,15.85
2019-05-01T11:59:08.529Z,16.29
2019-05-01T12:01:40.131Z,16.44
2019-05-01T12:04:10.833Z,16.74
2019-05-01T12:06:41.763Z,16.85
2019-05-01T12:09:13.237Z,16.90
2019-05-01T12:11:46.396Z,16.89
2019-05-01T12:14:17.090Z,16.10
2019-05-01T12:17:14.814Z,16.08
2019-05-01T12:19:45.852Z,16.37
2019-05-01T12:22:16.518Z,16.81
2019-05-01T12:24:47.217Z,16.99
2019-05-01T12:27:17.890Z,17.20
2019-05-01T12:29:48.532Z,17.26
2019-05-01T12:32:19.050Z,17.32
2019-05-01T12:34:50.088Z,17.61
2019-05-01T12:37:26.362Z,17.86
2019-05-01T12:39:57.156Z,18.02
2019-05-01T12:42:28.058Z,18.01
2019-05-01T12:44:58.531Z,18.21
2019-05-01T12:47:48.203Z,18.02
2019-05-01T12:50:21.829Z,17.83
2019-05-01T12:53:17.103Z,17.66
2019-05-01T12:56:15.612Z,17.63
2019-05-01T12:58:47.549Z,17.75
2019-05-01T13:01:18.020Z,17.42
2019-05-01T13:03:48.372Z,17.51
2019-05-01T13:06:19.006Z,17.72
2019-05-01T13:08:49.627Z,18.01
2019-05-01T13:11:20.343Z,18.26
2019-05-01T13:13:51.142Z,18.23
2019-05-01T13:16:21.777Z,18.12
2019-05-01T13:18:53.349Z,18.38
2019-05-01T13:21:23.693Z,17.97
2019-05-01T13:23:55.436Z,17.68
2019-05-01T13:26:35.274Z,18.13
2019-05-01T13:29:34.572Z,18.32
2019-05-01T13:32:22.684Z,18.17
2019-05-01T13:34:53.559Z,17.95
2019-05-01T13:37:24.891Z,18.28
2019-05-01T13:39:55.383Z,18.72
2019-05-01T13:42:26.919Z,18.61
2019-05-01T13:44:58.424Z,18.97
2019-05-01T13:47:28.952Z,18.68
2019-05-01T13:49:59.920Z,18.72
2019-05-01T13:52:30.898Z,18.84
2019-05-01T13:55:01.742Z,19.10
2019-05-01T13:57:32.479Z,19.55
2019-05-01T14:00:03.178Z,19.57
2019-05-01T14:02:35.523Z,19.38
2019-05-01T14:05:06.802Z,18.70
2019-05-01T14:07:37.989Z,18.30
2019-05-01T14:10:08.885Z,18.37
2019-05-01T14:12:39.760Z,18.49
2019-05-01T14:15:10.506Z,18.11
2019-05-01T14:17:42.660Z,18.12
2019-05-01T14:20:35.321Z,18.13
2019-05-01T14:23:10.956Z,18.00
2019-05-01T14:25:59.533Z,17.87
2019-05-01T14:28:30.236Z,17.25
2019-05-01T14:31:01.009Z,16.99
2019-05-01T14:33:32.694Z,16.82
2019-05-01T14:36:03.083Z,16.22
2019-05-01T14:38:33.775Z,15.90
2019-05-01T14:41:04.168Z,15.95
2019-05-01T14:43:34.880Z,16.44
2019-05-01T14:46:05.702Z,16.85
2019-05-01T14:48:36.352Z,16.90
2019-05-01T14:51:07.069Z,16.75
2019-05-01T14:53:38.132Z,16.70
2019-05-01T14:56:11.101Z,16.42
2019-05-01T14:58:41.699Z,16.02
2019-05-01T15:01:12.255Z,16.17
2019-05-01T15:03:43.753Z,16.12
2019-05-01T15:06:14.909Z,16.12
2019-05-01T15:08:45.529Z,16.12
2019-05-01T15:11:16.450Z,16.06
2019-05-01T15:13:59.464Z,16.06
2019-05-01T15:17:07.314Z,16.19
2019-05-01T15:19:44.843Z,16.39
2019-05-01T15:22:15.189Z,16.49
2019-05-01T15:24:45.936Z,16.54
2019-05-01T15:27:16.265Z,16.58
2019-05-01T15:29:48.276Z,16.37
2019-05-01T15:32:19.192Z,16.52
2019-05-01T15:34:50.482Z,16.72
2019-05-01T15:37:21.176Z,16.81
2019-05-01T15:40:02.576Z,16.48
2019-05-01T15:42:45.579Z,16.43
2019-05-01T15:45:16.410Z,16.40
2019-05-01T15:47:46.821Z,16.40
2019-05-01T15:50:17.499Z,16.26
2019-05-01T15:52:47.812Z,16.17
2019-05-01T15:55:18.113Z,16.03
2019-05-01T15:57:48.785Z,16.24
2019-05-01T16:00:21.295Z,16.40
2019-05-01T16:02:53.700Z,16.42
2019-05-01T16:05:25.175Z,16.59
2019-05-01T16:07:55.626Z,16.52
2019-05-01T16:10:31.941Z,16.58
2019-05-01T16:13:03.746Z,16.57
2019-05-01T16:15:35.148Z,16.46
2019-05-01T16:18:07.199Z,16.39
2019-05-01T16:20:37.641Z,16.28
2019-05-01T16:23:08.424Z,16.37
2019-05-01T16:25:39.029Z,16.37
2019-05-01T16:28:09.332Z,16.43
2019-05-01T16:30:42.117Z,16.23
2019-05-01T16:33:12.413Z,16.28
2019-05-01T16:35:43.057Z,16.12
2019-05-01T16:38:23.823Z,15.90
2019-05-01T16:41:07.893Z,15.83
2019-05-01T16:43:38.474Z,15.91
2019-05-01T16:46:09.569Z,15.94
2019-05-01T16:48:40.326Z,15.94
2019-05-01T16:51:12.120Z,15.92
2019-05-01T16:53:43.873Z,15.89
2019-05-01T16:56:14.217Z,15.73
2019-05-01T16:58:46.278Z,15.74
2019-05-01T17:01:44.673Z,15.70
2019-05-01T17:04:34.308Z,15.61
2019-05-01T17:07:21.289Z,15.46
2019-05-01T17:10:02.740Z,15.34
2019-05-01T17:12:41.780Z,15.11
2019-05-01T17:15:12.468Z,15.11
2019-05-01T17:17:43.592Z,15.07
2019-05-01T17:20:15.237Z,15.07
2019-05-01T17:22:46.310Z,15.09
2019-05-01T17:25:18.211Z,15.06
2019-05-01T17:27:48.865Z,14.99
2019-05-01T17:30:24.781Z,14.89
2019-05-01T17:32:55.556Z,14.76
2019-05-01T17:35:26.335Z,14.65
2019-05-01T17:37:56.790Z,14.53
2019-05-01T17:40:28.089Z,14.41
2019-05-01T17:42:58.465Z,14.33
2019-05-01T17:45:29.940Z,14.23
2019-05-01T17:48:01.611Z,14.11
2019-05-01T17:50:32.055Z,14.00
2019-05-01T17:53:02.413Z,13.90
2019-05-01T17:55:33.251Z,13.81
2019-05-01T17:58:03.527Z,13.70
2019-05-01T18:00:51.743Z,13.61
2019-05-01T18:03:44.569Z,13.28
2019-05-01T18:06:20.658Z,13.28
2019-05-01T18:09:02.493Z,13.19
2019-05-01T18:11:23.860Z,13.11
2019-05-01T18:13:54.786Z,12.99
2019-05-01T18:16:26.548Z,12.83
2019-05-01T18:18:57.214Z,12.72
2019-05-01T18:21:29.297Z,12.67
2019-05-01T18:24:18.971Z,12.64
2019-05-01T18:27:04.415Z,12.60
2019-05-01T18:29:54.794Z,12.50
2019-05-01T18:32:46.878Z,12.40
2019-05-01T18:35:17.661Z,12.38
2019-05-01T18:37:59.832Z,12.32
2019-05-01T18:40:37.859Z,12.25
2019-05-01T18:43:08.386Z,12.16
2019-05-01T18:45:51.011Z,12.05
2019-05-01T18:48:22.482Z,11.94
2019-05-01T18:50:54.962Z,11.79
2019-05-01T18:53:25.425Z,11.70
2019-05-01T18:55:55.835Z,11.63
2019-05-01T18:58:26.558Z,11.54
2019-05-01T19:00:56.955Z,11.42
2019-05-01T19:03:29.810Z,11.33
2019-05-01T19:05:59.728Z,11.32
2019-05-01T19:08:30.658Z,11.25
2019-05-01T19:11:11.742Z,11.18
2019-05-01T19:13:33.523Z,11.08
2019-05-01T19:16:08.385Z,10.98
2019-05-01T19:18:37.541Z,10.89
2019-05-01T19:21:08.745Z,10.80
2019-05-01T19:23:41.893Z,10.76
2019-05-01T19:26:14.113Z,10.69
2019-05-01T19:28:46.474Z,10.64
2019-05-01T19:31:21.383Z,10.59
2019-05-01T19:33:51.541Z,10.53
2019-05-01T19:36:22.251Z,10.50
2019-05-01T19:38:52.843Z,10.45
2019-05-01T19:41:24.209Z,10.37
2019-05-01T19:43:54.715Z,10.28
2019-05-01T19:46:26.791Z,10.26
2019-05-01T19:48:58.145Z,10.26
2019-05-01T19:51:28.767Z,10.21
2019-05-01T19:53:59.438Z,10.14
2019-05-01T19:56:29.740Z,10.07
2019-05-01T19:59:00.449Z,10.02
2019-05-01T20:01:30.750Z,9.96
2019-05-01T20:04:01.367Z,9.89
2019-05-01T20:06:32.813Z,9.83
2019-05-01T20:09:04.331Z,9.81
2019-05-01T20:11:36.635Z,9.80
2019-05-01T20:14:07.344Z,9.84
2019-05-01T20:16:37.885Z,9.84
2019-05-01T20:19:08.508Z,9.82
2019-05-01T20:21:41.658Z,9.92
2019-05-01T20:24:13.258Z,9.97
2019-05-01T20:26:43.705Z,9.97
2019-05-01T20:29:14.396Z,10.05
2019-05-01T20:31:45.851Z,10.27
2019-05-01T20:34:18.786Z,10.23
2019-05-01T20:36:49.231Z,10.22
2019-05-01T20:39:19.872Z,10.23
2019-05-01T20:41:50.277Z,10.26
2019-05-01T20:44:24.046Z,10.23
2019-05-01T20:46:53.731Z,10.25
2019-05-01T20:49:25.400Z,10.28
2019-05-01T20:51:55.730Z,10.17
2019-05-01T20:54:26.898Z,10.12
2019-05-01T20:57:04.575Z,10.15
2019-05-01T20:59:39.215Z,10.11
2019-05-01T21:02:09.331Z,10.09
2019-05-01T21:04:54.856Z,10.02
2019-05-01T21:07:31.045Z,9.96
2019-05-01T21:10:02.639Z,9.96
2019-05-01T21:12:33.340Z,9.97
2019-05-01T21:15:04.303Z,9.93
2019-05-01T21:17:34.838Z,9.83
2019-05-01T21:20:05.710Z,9.72
2019-05-01T21:22:36.001Z,9.58
2019-05-01T21:25:06.433Z,9.53
2019-05-01T21:27:36.739Z,9.44
2019-05-01T21:30:07.891Z,9.32
2019-05-01T21:32:38.295Z,9.25
2019-05-01T21:35:09.093Z,9.06
2019-05-01T21:37:39.508Z,9.06
2019-05-01T21:40:09.927Z,9.07
2019-05-01T21:42:40.222Z,9.07
2019-05-01T21:45:12.797Z,9.10
2019-05-01T21:47:43.136Z,9.17
2019-05-01T21:50:17.860Z,9.15
2019-05-01T21:52:45.706Z,9.11
2019-05-01T21:55:16.016Z,9.08
2019-05-01T21:57:49.984Z,9.06
2019-05-01T22:00:20.083Z,9.05
2019-05-01T22:02:53.106Z,9.05
2019-05-01T22:05:23.495Z,8.97
2019-05-01T22:07:54.112Z,8.90
2019-05-01T22:10:29.585Z,8.89
2019-05-01T22:13:00.612Z,8.81
2019-05-01T22:15:36.029Z,8.68
2019-05-01T22:18:32.838Z,8.65
2019-05-01T22:21:17.230Z,8.65
2019-05-01T22:24:05.248Z,8.60
2019-05-01T22:26:39.037Z,8.49
2019-05-01T22:29:11.298Z,8.37
2019-05-01T22:31:57.588Z,8.25
2019-05-01T22:34:35.004Z,8.17
2019-05-01T22:37:07.120Z,8.05
2019-05-01T22:39:39.768Z,8.03
2019-05-01T22:42:10.334Z,8.02
2019-05-01T22:44:40.635Z,7.96
2019-05-01T22:47:15.101Z,7.90
2019-05-01T22:49:44.251Z,7.83
2019-05-01T22:52:18.129Z,7.72
2019-05-01T22:54:49.147Z,7.72
2019-05-01T22:57:21.343Z,7.73
2019-05-01T22:59:51.954Z,7.68
2019-05-01T23:02:41.582Z,7.60
2019-05-01T23:05:12.152Z,7.51
2019-05-01T23:07:42.461Z,7.41
2019-05-01T23:10:12.998Z,7.37
2019-05-01T23:12:44.399Z,7.33
2019-05-01T23:15:20.275Z,7.30
2019-05-01T23:17:50.919Z,7.31
2019-05-01T23:20:21.519Z,7.30
2019-05-01T23:22:52.143Z,7.27
2019-05-01T23:25:22.765Z,7.25
2019-05-01T23:27:53.156Z,7.21
2019-05-01T23:30:23.504Z,7.15
2019-05-01T23:32:54.001Z,7.19
2019-05-01T23:35:24.603Z,7.35
2019-05-01T23:37:54.909Z,7.39
2019-05-01T23:40:25.476Z,7.42
2019-05-01T23:42:55.762Z,7.54
2019-05-01T23:45:26.432Z,7.53
2019-05-01T23:47:56.727Z,7.55
2019-05-01T23:50:27.075Z,7.46
2019-05-01T23:52:57.390Z,7.34
2019-05-01T23:55:27.642Z,7.23
2019-05-01T23:57:58.199Z,7.15
